Station Historical Data
Daily Summary for January 30, 2017 Units:  English    Metric   Both
« Previous Day
Next Day »
Daily Weekly Monthly Yearly Custom
  High: Low: Average:
Temperature: 24.2 °F 11.4 °F 19.2 °F
Dew Point: 17.3 °F 7.7 °F 13 °F
Humidity: 92% 59% 77%
Wind Speed: 9.0mph 0.0mph 1.8mph
Wind Gust: 12.0mph - -
Wind- - WSW
Pressure: 29.98 in 29.79 in -
Precipitation: 0.00 in    
Historical Graphs
 
 
Tabular Data for January 30, 2017
Time Temperature Dew Point Pressure Wind Wind Speed Wind Gust Humidity Rainfall Rate (Hourly)
00:04 21.7 °F 17.3 °F 29.79 in NNW 2.0 mph 5.0 mph 83% 0.00 in
00:09 21.7 °F 17.3 °F 29.79 in North 2.0 mph 4.0 mph 83% 0.00 in
00:14 21.6 °F 17.0 °F 29.80 in NNW 1.0 mph 4.0 mph 82% 0.00 in
00:19 21.5 °F 16.9 °F 29.79 in Calm     82% 0.00 in
00:24 21.3 °F 16.7 °F 29.79 in NNW 1.0 mph 5.0 mph 82% 0.00 in
00:29 21.2 °F 16.3 °F 29.79 in NNW 1.0 mph 5.0 mph 81% 0.00 in
00:34 20.9 °F 16.0 °F 29.79 in NNW 1.0 mph 2.0 mph 81% 0.00 in
00:39 20.7 °F 15.8 °F 29.79 in Calm     81% 0.00 in
00:44 20.4 °F 15.2 °F 29.79 in Calm     80% 0.00 in
00:49 20.0 °F 14.5 °F 29.79 in Calm     79% 0.00 in
00:54 19.6 °F 14.1 °F 29.80 in Calm     79% 0.00 in
00:59 19.3 °F 13.9 °F 29.80 in Calm     79% 0.00 in
01:04 19.1 °F 13.7 °F 29.80 in Calm     79% 0.00 in
01:09 18.8 °F 13.4 °F 29.80 in Calm     79% 0.00 in
01:14 18.4 °F 12.7 °F 29.80 in Calm     78% 0.00 in
01:19 17.8 °F 12.1 °F 29.80 in Calm     78% 0.00 in
01:24 17.5 °F 12.1 °F 29.80 in Calm     79% 0.00 in
01:29 17.2 °F 11.5 °F 29.80 in Calm     78% 0.00 in
01:34 16.9 °F 11.5 °F 29.80 in Calm     79% 0.00 in
01:39 16.5 °F 11.1 °F 29.80 in Calm     79% 0.00 in
01:44 16.1 °F 10.7 °F 29.80 in Calm     79% 0.00 in
01:49 15.8 °F 10.2 °F 29.80 in Calm     78% 0.00 in
01:54 15.4 °F 10.1 °F 29.80 in Calm     79% 0.00 in
01:59 15.1 °F 10.0 °F 29.80 in Calm     80% 0.00 in
02:04 14.8 °F 9.7 °F 29.80 in Calm     80% 0.00 in
02:09 14.6 °F 9.6 °F 29.80 in Calm     80% 0.00 in
02:14 14.3 °F 9.3 °F 29.80 in Calm     80% 0.00 in
02:19 14.1 °F 9.1 °F 29.80 in Calm     80% 0.00 in
02:24 13.8 °F 9.0 °F 29.80 in Calm     81% 0.00 in
02:29 13.6 °F 8.9 °F 29.80 in Calm     81% 0.00 in
02:34 13.4 °F 8.7 °F 29.81 in Calm     81% 0.00 in
02:39 13.1 °F 8.4 °F 29.81 in Calm     81% 0.00 in
02:44 12.9 °F 8.2 °F 29.81 in Calm     81% 0.00 in
02:49 12.7 °F 8.0 °F 29.81 in Calm     81% 0.00 in
02:54 12.5 °F 8.0 °F 29.81 in Calm     82% 0.00 in
02:59 12.3 °F 7.9 °F 29.81 in Calm     82% 0.00 in
03:04 12.1 °F 7.7 °F 29.81 in Calm     82% 0.00 in
03:09 11.9 °F 7.7 °F 29.81 in Calm     83% 0.00 in
03:14 11.9 °F 7.7 °F 29.81 in Calm     83% 0.00 in
03:19 11.7 °F 7.8 °F 29.81 in Calm     84% 0.00 in
03:24 11.7 °F 7.8 °F 29.81 in Calm     84% 0.00 in
03:29 11.6 °F 8.0 °F 29.81 in Calm     85% 0.00 in
03:34 11.6 °F 8.0 °F 29.81 in Calm     85% 0.00 in
03:39 11.6 °F 8.0 °F 29.81 in Calm     85% 0.00 in
03:44 11.5 °F 8.1 °F 29.81 in Calm     86% 0.00 in
03:49 11.5 °F 8.1 °F 29.81 in Calm     86% 0.00 in
03:54 11.5 °F 8.1 °F 29.81 in Calm     86% 0.00 in
03:59 11.5 °F 8.1 °F 29.81 in Calm     86% 0.00 in
04:04 11.5 °F 8.1 °F 29.81 in Calm     86% 0.00 in
04:09 11.5 °F 8.4 °F 29.82 in Calm     87% 0.00 in
04:14 11.4 °F 8.3 °F 29.82 in Calm     87% 0.00 in
04:19 11.5 °F 8.4 °F 29.82 in Calm     87% 0.00 in
04:24 11.5 °F 8.4 °F 29.82 in Calm     87% 0.00 in
04:29 11.6 °F 8.5 °F 29.82 in Calm     87% 0.00 in
04:34 11.8 °F 8.9 °F 29.82 in Calm     88% 0.00 in
04:39 11.9 °F 9.0 °F 29.82 in Calm     88% 0.00 in
04:44 12.1 °F 9.5 °F 29.82 in Calm     89% 0.00 in
04:49 12.3 °F 9.7 °F 29.82 in Calm     89% 0.00 in
04:54 12.4 °F 9.8 °F 29.82 in Calm     89% 0.00 in
04:59 12.5 °F 9.9 °F 29.82 in Calm     89% 0.00 in
05:04 12.6 °F 10.0 °F 29.83 in Calm     89% 0.00 in
05:09 12.7 °F 10.1 °F 29.83 in Calm     89% 0.00 in
05:14 12.8 °F 10.2 °F 29.83 in Calm     89% 0.00 in
05:19 12.9 °F 10.3 °F 29.83 in Calm     89% 0.00 in
05:24 13.0 °F 10.4 °F 29.83 in Calm     89% 0.00 in
05:29 13.2 °F 10.8 °F 29.83 in Calm     90% 0.00 in
05:34 13.2 °F 10.8 °F 29.83 in Calm     90% 0.00 in
05:39 13.5 °F 11.1 °F 29.84 in Calm     90% 0.00 in
05:44 13.7 °F 11.3 °F 29.84 in Calm     90% 0.00 in
05:49 13.9 °F 11.5 °F 29.83 in Calm     90% 0.00 in
05:54 14.1 °F 11.7 °F 29.84 in Calm     90% 0.00 in
05:59 14.4 °F 12.3 °F 29.84 in Calm     91% 0.00 in
06:04 14.6 °F 12.5 °F 29.84 in Calm     91% 0.00 in
06:09 15.0 °F 12.8 °F 29.84 in Calm     91% 0.00 in
06:14 15.3 °F 13.1 °F 29.84 in Calm     91% 0.00 in
06:19 15.6 °F 13.4 °F 29.84 in Calm   2.0 mph 91% 0.00 in
06:24 16.0 °F 14.1 °F 29.84 in Calm   2.0 mph 92% 0.00 in
06:29 16.2 °F 14.0 °F 29.84 in Calm   2.0 mph 91% 0.00 in
06:34 16.4 °F 14.5 °F 29.84 in Calm     92% 0.00 in
06:39 16.5 °F 14.3 °F 29.84 in Calm     91% 0.00 in
06:44 16.6 °F 14.4 °F 29.85 in Calm     91% 0.00 in
06:49 16.6 °F 14.4 °F 29.84 in Calm     91% 0.00 in
06:54 16.6 °F 14.4 °F 29.85 in Calm     91% 0.00 in
06:59 16.7 °F 14.5 °F 29.85 in Calm     91% 0.00 in
07:04 16.7 °F 14.5 °F 29.85 in Calm     91% 0.00 in
07:09 16.6 °F 14.4 °F 29.85 in Calm     91% 0.00 in
07:14 16.5 °F 14.3 °F 29.85 in Calm     91% 0.00 in
07:19 16.4 °F 14.2 °F 29.86 in Calm     91% 0.00 in
07:24 16.1 °F 13.9 °F 29.86 in Calm     91% 0.00 in
07:29 16.0 °F 13.8 °F 29.86 in Calm     91% 0.00 in
07:34 15.8 °F 13.6 °F 29.86 in Calm   2.0 mph 91% 0.00 in
07:39 15.6 °F 13.2 °F 29.87 in Calm   2.0 mph 90% 0.00 in
07:44 15.4 °F 13.0 °F 29.87 in NNW 1.0 mph 3.0 mph 90% 0.00 in
07:49 15.4 °F 13.0 °F 29.87 in NNW 2.0 mph 2.0 mph 90% 0.00 in
07:54 15.4 °F 13.2 °F 29.87 in NNW 1.0 mph 2.0 mph 91% 0.00 in
07:59 15.8 °F 13.6 °F 29.87 in NNW 1.0 mph 4.0 mph 91% 0.00 in
08:04 16.2 °F 14.0 °F 29.87 in NNW 2.0 mph 5.0 mph 91% 0.00 in
08:09 16.5 °F 14.3 °F 29.87 in North 2.0 mph 5.0 mph 91% 0.00 in
08:14 16.7 °F 14.5 °F 29.88 in North 1.0 mph 3.0 mph 91% 0.00 in
08:19 17.1 °F 14.9 °F 29.88 in NE 2.0 mph 3.0 mph 91% 0.00 in
08:24 17.5 °F 15.3 °F 29.88 in NE 1.0 mph 3.0 mph 91% 0.00 in
08:29 17.7 °F 15.5 °F 29.88 in NE 1.0 mph 3.0 mph 91% 0.00 in
08:34 17.9 °F 15.7 °F 29.89 in NE 2.0 mph 3.0 mph 91% 0.00 in
08:39 18.0 °F 15.8 °F 29.89 in NE 1.0 mph 2.0 mph 91% 0.00 in
08:44 18.2 °F 16.0 °F 29.89 in NE 2.0 mph 4.0 mph 91% 0.00 in
08:49 18.5 °F 16.1 °F 29.89 in NE 2.0 mph 3.0 mph 90% 0.00 in
08:54 18.7 °F 16.3 °F 29.89 in NE 1.0 mph 3.0 mph 90% 0.00 in
08:59 19.0 °F 16.3 °F 29.89 in NE 3.0 mph 4.0 mph 89% 0.00 in
09:04 19.1 °F 16.1 °F 29.89 in NE 2.0 mph 4.0 mph 88% 0.00 in
09:09 19.0 °F 15.5 °F 29.90 in North 2.0 mph 3.0 mph 86% 0.00 in
09:14 18.9 °F 15.4 °F 29.90 in North 1.0 mph 4.0 mph 86% 0.00 in
09:19 19.2 °F 15.7 °F 29.90 in NNE 2.0 mph 3.0 mph 86% 0.00 in
09:24 19.3 °F 15.5 °F 29.90 in NNE 1.0 mph 4.0 mph 85% 0.00 in
09:29 19.2 °F 15.2 °F 29.90 in NNW 4.0 mph 4.0 mph 84% 0.00 in
09:34 19.3 °F 15.3 °F 29.91 in NE 1.0 mph 4.0 mph 84% 0.00 in
09:39 19.3 °F 15.3 °F 29.91 in NNE 2.0 mph 4.0 mph 84% 0.00 in
09:44 19.9 °F 15.6 °F 29.91 in NE 2.0 mph 4.0 mph 83% 0.00 in
09:49 20.1 °F 15.5 °F 29.91 in NNE 2.0 mph 6.0 mph 82% 0.00 in
09:54 20.3 °F 15.4 °F 29.91 in NNE 3.0 mph 6.0 mph 81% 0.00 in
09:59 20.8 °F 15.6 °F 29.92 in NNE 2.0 mph 7.0 mph 80% 0.00 in
10:04 20.6 °F 15.1 °F 29.92 in North 5.0 mph 6.0 mph 79% 0.00 in
10:09 20.3 °F 15.1 °F 29.92 in North 3.0 mph 6.0 mph 80% 0.00 in
10:14 19.9 °F 14.7 °F 29.92 in North 3.0 mph 5.0 mph 80% 0.00 in
10:19 20.4 °F 15.5 °F 29.92 in NW 1.0 mph 4.0 mph 81% 0.00 in
10:24 20.7 °F 15.5 °F 29.93 in North 2.0 mph 5.0 mph 80% 0.00 in
10:29 20.4 °F 14.9 °F 29.93 in NNW 7.0 mph 7.0 mph 79% 0.00 in
10:34 20.3 °F 14.8 °F 29.93 in NNW 3.0 mph 7.0 mph 79% 0.00 in
10:40 20.6 °F 15.1 °F 29.93 in NNW 3.0 mph 7.0 mph 79% 0.00 in
10:49 20.9 °F 15.1 °F 29.93 in North 3.0 mph 5.0 mph 78% 0.00 in
10:54 20.3 °F 14.8 °F 29.93 in North 3.0 mph 7.0 mph 79% 0.00 in
10:59 20.9 °F 15.1 °F 29.93 in North 1.0 mph 6.0 mph 78% 0.00 in
11:04 20.9 °F 14.8 °F 29.93 in Calm   5.0 mph 77% 0.00 in
11:14 21.7 °F 15.3 °F 29.93 in North 3.0 mph 7.0 mph 76% 0.00 in
11:19 20.9 °F 14.5 °F 29.93 in NNW 3.0 mph 7.0 mph 76% 0.00 in
11:24 20.6 °F 14.2 °F 29.93 in NE 4.0 mph 4.0 mph 76% 0.00 in
11:29 20.4 °F 14.0 °F 29.93 in North 3.0 mph 5.0 mph 76% 0.00 in
11:39 21.3 °F 14.3 °F 29.93 in WNW 3.0 mph 6.0 mph 74% 0.00 in
11:44 21.1 °F 14.1 °F 29.93 in West 2.0 mph 6.0 mph 74% 0.00 in
11:49 21.3 °F 14.6 °F 29.93 in WNW 2.0 mph 6.0 mph 75% 0.00 in
11:59 22.0 °F 14.7 °F 29.93 in NNW 2.0 mph 5.0 mph 73% 0.00 in
12:14 22.7 °F 15.0 °F 29.93 in North 6.0 mph 6.0 mph 72% 0.00 in
12:19 22.6 °F 15.2 °F 29.93 in NNW 1.0 mph 6.0 mph 73% 0.00 in
12:24 22.5 °F 14.2 °F 29.93 in NNW 3.0 mph 6.0 mph 70% 0.00 in
12:29 22.8 °F 14.5 °F 29.92 in NNW 3.0 mph 6.0 mph 70% 0.00 in
12:39 22.5 °F 15.5 °F 29.92 in NW 4.0 mph 7.0 mph 74% 0.00 in
12:44 22.2 °F 14.5 °F 29.92 in NNW 4.0 mph 8.0 mph 72% 0.00 in
12:49 22.2 °F 14.5 °F 29.92 in NNW 3.0 mph 8.0 mph 72% 0.00 in
12:54 22.5 °F 14.8 °F 29.92 in NW 3.0 mph 7.0 mph 72% 0.00 in
13:09 23.0 °F 15.3 °F 29.92 in NW 2.0 mph 5.0 mph 72% 0.00 in
13:14 22.8 °F 15.1 °F 29.92 in NW 3.0 mph 9.0 mph 72% 0.00 in
13:19 22.4 °F 15.4 °F 29.92 in NW 4.0 mph 9.0 mph 74% 0.00 in
13:24 22.5 °F 15.1 °F 29.92 in NW 3.0 mph 7.0 mph 73% 0.00 in
13:29 22.0 °F 14.7 °F 29.92 in NNW 3.0 mph 7.0 mph 73% 0.00 in
13:34 22.4 °F 15.1 °F 29.92 in NNW 2.0 mph 6.0 mph 73% 0.00 in
13:39 22.6 °F 15.2 °F 29.92 in WNW 3.0 mph 7.0 mph 73% 0.00 in
13:44 22.5 °F 15.1 °F 29.92 in West 2.0 mph 7.0 mph 73% 0.00 in
13:49 22.5 °F 14.2 °F 29.92 in NW 3.0 mph 6.0 mph 70% 0.00 in
13:54 22.4 °F 14.1 °F 29.92 in NW 2.0 mph 7.0 mph 70% 0.00 in
13:59 22.9 °F 14.2 °F 29.92 in West 1.0 mph 6.0 mph 69% 0.00 in
14:04 23.5 °F 15.1 °F 29.92 in NNW 3.0 mph 5.0 mph 70% 0.00 in
14:09 24.2 °F 15.5 °F 29.92 in North 4.0 mph 6.0 mph 69% 0.00 in
14:14 24.0 °F 15.0 °F 29.92 in NNW 3.0 mph 6.0 mph 68% 0.00 in
14:19 23.9 °F 15.2 °F 29.92 in North 2.0 mph 5.0 mph 69% 0.03 in
14:24 23.7 °F 15.0 °F 29.92 in North 3.0 mph 7.0 mph 69% 0.04 in
14:29 23.2 °F 14.9 °F 29.92 in NNW 3.0 mph 7.0 mph 70% 0.04 in
14:34 22.8 °F 14.1 °F 29.92 in NNW 2.0 mph 5.0 mph 69% 0.05 in
14:39 22.7 °F 14.4 °F 29.92 in NW 2.0 mph 5.0 mph 70% 0.05 in
14:44 22.9 °F 14.2 °F 29.92 in WNW 3.0 mph 7.0 mph 69% 0.05 in
14:49 23.2 °F 14.5 °F 29.93 in West 4.0 mph 7.0 mph 69% 0.05 in
14:54 23.3 °F 14.0 °F 29.93 in WNW 3.0 mph 7.0 mph 67% 0.05 in
14:59 23.2 °F 13.9 °F 29.93 in WNW 5.0 mph 7.0 mph 67% 0.05 in
15:04 22.9 °F 13.2 °F 29.93 in West 4.0 mph 10.0 mph 66% 0.05 in
15:09 22.7 °F 13.4 °F 29.93 in West 6.0 mph 10.0 mph 67% 0.05 in
15:14 23.0 °F 13.7 °F 29.93 in West 4.0 mph 10.0 mph 67% 0.05 in
15:19 23.4 °F 13.7 °F 29.93 in West 4.0 mph 10.0 mph 66% 0.02 in
15:24 23.6 °F 13.9 °F 29.93 in West 4.0 mph 10.0 mph 66% 0.01 in
15:29 23.7 °F 13.6 °F 29.93 in West 4.0 mph 8.0 mph 65% 0.02 in
15:34 24.0 °F 13.9 °F 29.94 in WNW 4.0 mph 8.0 mph 65% 0.01 in
15:39 23.4 °F 14.0 °F 29.93 in WNW 4.0 mph 8.0 mph 67% 0.01 in
15:44 23.7 °F 14.3 °F 29.93 in WNW 3.0 mph 5.0 mph 67% 0.01 in
15:49 23.4 °F 13.4 °F 29.93 in West 2.0 mph 7.0 mph 65% 0.01 in
15:54 23.4 °F 13.4 °F 29.94 in NW 2.0 mph 5.0 mph 65% 0.02 in
15:59 23.9 °F 13.5 °F 29.94 in West 3.0 mph 6.0 mph 64% 0.02 in
16:04 23.8 °F 13.0 °F 29.94 in West 3.0 mph 8.0 mph 63% 0.02 in
16:09 24.0 °F 11.7 °F 29.94 in WNW 9.0 mph 12.0 mph 59% 0.02 in
16:14 23.7 °F 11.4 °F 29.94 in West 4.0 mph 9.0 mph 59% 0.02 in
16:19 23.7 °F 11.4 °F 29.94 in West 5.0 mph 10.0 mph 59% 0.02 in
16:24 23.4 °F 11.5 °F 29.94 in West 5.0 mph 11.0 mph 60% 0.02 in
16:29 23.5 °F 11.6 °F 29.94 in West 4.0 mph 11.0 mph 60% 0.01 in
16:34 23.4 °F 11.9 °F 29.94 in West 4.0 mph 9.0 mph 61% 0.01 in
16:39 23.2 °F 12.1 °F 29.94 in West 4.0 mph 9.0 mph 62% 0.01 in
16:44 22.9 °F 12.2 °F 29.94 in West 5.0 mph 9.0 mph 63% 0.01 in
16:49 22.6 °F 12.9 °F 29.95 in West 3.0 mph 8.0 mph 66% 0.01 in
16:54 22.4 °F 13.1 °F 29.95 in WNW 2.0 mph 7.0 mph 67% 0.00 in
16:59 22.5 °F 12.5 °F 29.95 in West 1.0 mph 5.0 mph 65% 0.00 in
17:04 22.6 °F 11.5 °F 29.95 in West 4.0 mph 11.0 mph 62% 0.00 in
17:09 22.4 °F 11.3 °F 29.95 in WNW 3.0 mph 7.0 mph 62% 0.00 in
17:14 22.2 °F 11.1 °F 29.95 in West 2.0 mph 7.0 mph 62% 0.00 in
17:19 21.9 °F 10.9 °F 29.95 in WNW 3.0 mph 6.0 mph 62% 0.00 in
17:24 21.7 °F 11.0 °F 29.95 in West 3.0 mph 6.0 mph 63% 0.00 in
17:29 21.7 °F 11.0 °F 29.95 in WSW 3.0 mph 7.0 mph 63% 0.00 in
17:34 21.7 °F 11.0 °F 29.96 in WSW 3.0 mph 9.0 mph 63% 0.00 in
17:39 21.6 °F 11.3 °F 29.96 in West 3.0 mph 9.0 mph 64% 0.00 in
17:44 21.5 °F 11.2 °F 29.96 in West 3.0 mph 5.0 mph 64% 0.00 in
17:49 21.3 °F 11.4 °F 29.96 in West 4.0 mph 5.0 mph 65% 0.00 in
17:54 21.2 °F 11.6 °F 29.96 in West 2.0 mph 5.0 mph 66% 0.00 in
17:59 20.9 °F 11.7 °F 29.96 in West 2.0 mph 5.0 mph 67% 0.00 in
18:04 20.9 °F 11.7 °F 29.97 in Calm   5.0 mph 67% 0.00 in
18:09 20.9 °F 12.0 °F 29.97 in West 2.0 mph 6.0 mph 68% 0.00 in
18:14 21.3 °F 12.4 °F 29.97 in WNW 2.0 mph 6.0 mph 68% 0.00 in
18:19 21.3 °F 12.4 °F 29.97 in WNW 2.0 mph 7.0 mph 68% 0.00 in
18:24 21.0 °F 12.1 °F 29.97 in West 3.0 mph 7.0 mph 68% 0.00 in
18:29 21.1 °F 12.2 °F 29.97 in West 3.0 mph 7.0 mph 68% 0.00 in
18:34 21.2 °F 12.3 °F 29.97 in West 3.0 mph 7.0 mph 68% 0.00 in
18:39 21.2 °F 12.6 °F 29.98 in West 3.0 mph 6.0 mph 69% 0.00 in
18:44 21.1 °F 12.5 °F 29.98 in WNW 4.0 mph 6.0 mph 69% 0.00 in
18:49 21.0 °F 12.7 °F 29.98 in NW 4.0 mph 7.0 mph 70% 0.00 in
18:54 20.9 °F 12.6 °F 29.98 in West 4.0 mph 8.0 mph 70% 0.00 in
18:59 21.0 °F 12.7 °F 29.98 in WNW 4.0 mph 8.0 mph 70% 0.00 in
19:04 21.2 °F 12.9 °F 29.98 in WNW 3.0 mph 7.0 mph 70% 0.00 in
19:09 21.4 °F 13.1 °F 29.98 in WNW 3.0 mph 6.0 mph 70% 0.00 in
19:14 21.6 °F 13.3 °F 29.98 in WNW 3.0 mph 7.0 mph 70% 0.00 in
19:19 21.8 °F 13.5 °F 29.98 in West 2.0 mph 4.0 mph 70% 0.00 in
19:24 21.8 °F 13.5 °F 29.98 in West 3.0 mph 5.0 mph 70% 0.00 in
19:29 21.9 °F 13.6 °F 29.98 in WNW 3.0 mph 6.0 mph 70% 0.00 in
19:34 22.0 °F 13.4 °F 29.98 in WNW 3.0 mph 6.0 mph 69% 0.00 in
19:39 21.9 °F 13.3 °F 29.98 in WNW 3.0 mph 7.0 mph 69% 0.00 in
19:44 21.8 °F 13.5 °F 29.97 in WNW 3.0 mph 7.0 mph 70% 0.00 in
19:49 21.9 °F 13.3 °F 29.97 in WNW 3.0 mph 6.0 mph 69% 0.00 in
19:54 22.0 °F 13.4 °F 29.97 in West 3.0 mph 7.0 mph 69% 0.00 in
19:59 22.0 °F 12.7 °F 29.97 in NW 5.0 mph 10.0 mph 67% 0.00 in
20:04 21.9 °F 13.0 °F 29.97 in WSW 5.0 mph 9.0 mph 68% 0.00 in
20:09 21.8 °F 13.2 °F 29.97 in West 4.0 mph 9.0 mph 69% 0.00 in
20:14 21.6 °F 12.7 °F 29.97 in West 5.0 mph 8.0 mph 68% 0.00 in
20:19 21.7 °F 12.8 °F 29.97 in West 2.0 mph 5.0 mph 68% 0.00 in
20:24 21.6 °F 12.3 °F 29.96 in WSW 4.0 mph 5.0 mph 67% 0.00 in
20:29 21.7 °F 12.4 °F 29.96 in West 3.0 mph 5.0 mph 67% 0.00 in
20:34 21.7 °F 12.1 °F 29.96 in West 2.0 mph 5.0 mph 66% 0.00 in
20:39 21.7 °F 12.4 °F 29.96 in West 2.0 mph 5.0 mph 67% 0.00 in
20:44 21.6 °F 12.3 °F 29.95 in West 2.0 mph 5.0 mph 67% 0.00 in
20:49 21.5 °F 12.6 °F 29.95 in West 1.0 mph 3.0 mph 68% 0.00 in
20:54 21.5 °F 12.2 °F 29.95 in West 2.0 mph 4.0 mph 67% 0.00 in
20:59 21.5 °F 12.2 °F 29.95 in WNW 2.0 mph 5.0 mph 67% 0.00 in
21:04 21.4 °F 11.8 °F 29.95 in West 2.0 mph 6.0 mph 66% 0.00 in
21:09 21.5 °F 12.2 °F 29.95 in West 3.0 mph 7.0 mph 67% 0.00 in
21:14 21.5 °F 12.2 °F 29.95 in West 2.0 mph 7.0 mph 67% 0.00 in
21:19 21.5 °F 12.6 °F 29.95 in NW 3.0 mph 4.0 mph 68% 0.00 in
21:24 21.5 °F 12.9 °F 29.94 in WSW 3.0 mph 8.0 mph 69% 0.00 in
21:29 21.3 °F 13.0 °F 29.94 in West 4.0 mph 4.0 mph 70% 0.00 in
21:34 21.2 °F 13.3 °F 29.94 in WNW 1.0 mph 5.0 mph 71% 0.00 in
21:39 21.0 °F 13.4 °F 29.94 in WNW 2.0 mph 5.0 mph 72% 0.00 in
21:44 20.9 °F 13.6 °F 29.94 in WNW 1.0 mph 4.0 mph 73% 0.00 in
21:49 20.9 °F 13.6 °F 29.94 in West 1.0 mph 5.0 mph 73% 0.00 in
21:54 20.8 °F 13.5 °F 29.94 in Calm   1.0 mph 73% 0.00 in
21:59 20.8 °F 13.5 °F 29.94 in Calm   2.0 mph 73% 0.00 in
22:04 20.8 °F 13.5 °F 29.94 in Calm   3.0 mph 73% 0.00 in
22:09 20.9 °F 13.3 °F 29.94 in Calm   1.0 mph 72% 0.00 in
22:14 20.8 °F 13.5 °F 29.94 in Calm   1.0 mph 73% 0.00 in
22:19 20.6 °F 13.3 °F 29.94 in Calm   1.0 mph 73% 0.00 in
22:24 20.4 °F 13.4 °F 29.94 in Calm     74% 0.00 in
22:29 20.3 °F 13.3 °F 29.94 in SW 1.0 mph 3.0 mph 74% 0.00 in
22:34 20.5 °F 13.5 °F 29.95 in SSW 1.0 mph 3.0 mph 74% 0.00 in
22:39 20.7 °F 13.7 °F 29.94 in South 5.0 mph 8.0 mph 74% 0.00 in
22:44 20.7 °F 14.6 °F 29.95 in SSE 4.0 mph 8.0 mph 77% 0.00 in
22:49 20.6 °F 14.8 °F 29.95 in SSE 3.0 mph 8.0 mph 78% 0.00 in
22:54 20.5 °F 15.0 °F 29.95 in SSE 2.0 mph 6.0 mph 79% 0.00 in
22:59 20.5 °F 15.3 °F 29.95 in SSE 3.0 mph 4.0 mph 80% 0.00 in
23:04 20.5 °F 15.3 °F 29.95 in Calm   3.0 mph 80% 0.00 in
23:09 20.5 °F 15.3 °F 29.95 in Calm   3.0 mph 80% 0.00 in
23:14 20.6 °F 15.4 °F 29.95 in SSE 2.0 mph 3.0 mph 80% 0.00 in
23:19 20.6 °F 15.4 °F 29.96 in SSE 2.0 mph 3.0 mph 80% 0.00 in
23:24 20.6 °F 15.4 °F 29.95 in South 2.0 mph 4.0 mph 80% 0.00 in
23:29 20.7 °F 15.5 °F 29.95 in South 2.0 mph 4.0 mph 80% 0.00 in
23:34 20.8 °F 15.9 °F 29.95 in Calm   5.0 mph 81% 0.00 in
23:39 20.8 °F 16.2 °F 29.95 in SSE 2.0 mph 4.0 mph 82% 0.00 in
23:44 20.9 °F 16.3 °F 29.95 in SSE 2.0 mph 4.0 mph 82% 0.00 in
23:49 20.8 °F 16.2 °F 29.95 in SSE 2.0 mph 4.0 mph 82% 0.00 in
23:54 20.8 °F 16.5 °F 29.94 in SE 2.0 mph 5.0 mph 83% 0.00 in
23:59 20.7 °F 16.6 °F 29.95 in Calm   3.0 mph 84% 0.00 in
Buffalo, New York, USA
Compliments of Weather Underground - 2.25 mb